X  Fechar Metar - Info de Aeroporto     EHKD De Kooy Airport
Temperatura
10°C Temperatura
9°C Ptº Orvalho
94% Humidade



Vento
10 KM/H
6 MPH
3 M/S
5 NÓS



190°
S
Condições Atuais

Muito Nublado Muito Nublado
Pressão 1005.76 (hPa) - 29.7 (inHg)
Visibilidade 6 (milha) - 9.7 (km)
Aeroporto
Código-Aeropoto EHKD

Localização: De Kooy Airport
Distância: 34 (km)

Metar:
EHKD 170155Z AUTO 19005KT 9999 BKN220 10/09 Q1006 BLU

Hora: 17-06-2024 03:55 CEST